sensor_id;sensor_type;location;lat;lon;timestamp;P1;durP1;ratioP1;P2;durP2;ratioP2
23001;SDS011;11667;51.706;4.856;2024-01-15T00:00:40;5.00;;;0.90;;
23001;SDS011;11667;51.706;4.856;2024-01-15T00:03:10;5.05;;;0.88;;
23001;SDS011;11667;51.706;4.856;2024-01-15T00:05:39;4.47;;;0.88;;
23001;SDS011;11667;51.706;4.856;2024-01-15T00:08:08;4.97;;;1.00;;
23001;SDS011;11667;51.706;4.856;2024-01-15T00:10:38;2.37;;;0.53;;
23001;SDS011;11667;51.706;4.856;2024-01-15T00:13:08;3.92;;;0.90;;
23001;SDS011;11667;51.706;4.856;2024-01-15T00:15:38;1.05;;;0.82;;
23001;SDS011;11667;51.706;4.856;2024-01-15T00:18:07;6.58;;;1.47;;
23001;SDS011;11667;51.706;4.856;2024-01-15T00:20:37;0.68;;;0.60;;
23001;SDS011;11667;51.706;4.856;2024-01-15T00:23:06;6.72;;;1.35;;
23001;SDS011;11667;51.706;4.856;2024-01-15T00:25:35;2.67;;;0.90;;
23001;SDS011;11667;51.706;4.856;2024-01-15T00:28:04;3.27;;;1.00;;
23001;SDS011;11667;51.706;4.856;2024-01-15T00:30:34;3.70;;;1.45;;
23001;SDS011;11667;51.706;4.856;2024-01-15T00:33:03;3.50;;;1.22;;
23001;SDS011;11667;51.706;4.856;2024-01-15T00:35:34;3.17;;;1.12;;
23001;SDS011;11667;51.706;4.856;2024-01-15T00:38:03;5.80;;;1.20;;
23001;SDS011;11667;51.706;4.856;2024-01-15T00:40:32;3.75;;;1.40;;
23001;SDS011;11667;51.706;4.856;2024-01-15T00:43:02;1.65;;;1.02;;
23001;SDS011;11667;51.706;4.856;2024-01-15T00:45:31;5.03;;;1.25;;
23001;SDS011;11667;51.706;4.856;2024-01-15T00:48:01;5.40;;;1.35;;
23001;SDS011;11667;51.706;4.856;2024-01-15T00:50:30;1.50;;;1.02;;
23001;SDS011;11667;51.706;4.856;2024-01-15T00:53:00;0.75;;;0.70;;
23001;SDS011;11667;51.706;4.856;2024-01-15T00:55:29;3.72;;;0.90;;
23001;SDS011;11667;51.706;4.856;2024-01-15T00:57:59;2.80;;;1.30;;
23001;SDS011;11667;51.706;4.856;2024-01-15T01:00:28;1.75;;;0.90;;
23001;SDS011;11667;51.706;4.856;2024-01-15T01:02:58;5.45;;;1.25;;
23001;SDS011;11667;51.706;4.856;2024-01-15T01:05:27;1.98;;;1.00;;
23001;SDS011;11667;51.706;4.856;2024-01-15T01:07:56;1.02;;;0.65;;
23001;SDS011;11667;51.706;4.856;2024-01-15T01:10:26;3.10;;;0.90;;
23001;SDS011;11667;51.706;4.856;2024-01-15T01:12:55;4.58;;;0.95;;
23001;SDS011;11667;51.706;4.856;2024-01-15T01:15:25;4.37;;;1.37;;
23001;SDS011;11667;51.706;4.856;2024-01-15T01:17:55;1.40;;;0.53;;
23001;SDS011;11667;51.706;4.856;2024-01-15T01:20:24;1.45;;;1.10;;
23001;SDS011;11667;51.706;4.856;2024-01-15T01:22:54;2.52;;;1.10;;
23001;SDS011;11667;51.706;4.856;2024-01-15T01:25:23;2.55;;;1.25;;
23001;SDS011;11667;51.706;4.856;2024-01-15T01:27:54;2.05;;;1.07;;
23001;SDS011;11667;51.706;4.856;2024-01-15T01:30:23;4.53;;;1.05;;
23001;SDS011;11667;51.706;4.856;2024-01-15T01:32:53;4.25;;;1.40;;
23001;SDS011;11667;51.706;4.856;2024-01-15T01:35:22;1.00;;;0.65;;
23001;SDS011;11667;51.706;4.856;2024-01-15T01:37:52;5.55;;;1.10;;
23001;SDS011;11667;51.706;4.856;2024-01-15T01:40:21;5.62;;;1.20;;
23001;SDS011;11667;51.706;4.856;2024-01-15T01:42:51;8.10;;;0.95;;
23001;SDS011;11667;51.706;4.856;2024-01-15T01:45:20;4.28;;;1.07;;
23001;SDS011;11667;51.706;4.856;2024-01-15T01:47:49;3.98;;;0.85;;
23001;SDS011;11667;51.706;4.856;2024-01-15T01:50:19;1.55;;;0.57;;
23001;SDS011;11667;51.706;4.856;2024-01-15T01:52:49;2.40;;;0.85;;
23001;SDS011;11667;51.706;4.856;2024-01-15T01:55:18;4.00;;;0.90;;
23001;SDS011;11667;51.706;4.856;2024-01-15T01:57:48;5.35;;;1.20;;
23001;SDS011;11667;51.706;4.856;2024-01-15T02:00:18;4.33;;;1.40;;
23001;SDS011;11667;51.706;4.856;2024-01-15T02:02:48;1.75;;;0.85;;
23001;SDS011;11667;51.706;4.856;2024-01-15T02:05:18;10.40;;;1.90;;
23001;SDS011;11667;51.706;4.856;2024-01-15T02:07:49;2.17;;;1.07;;
23001;SDS011;11667;51.706;4.856;2024-01-15T02:10:18;5.60;;;1.05;;
23001;SDS011;11667;51.706;4.856;2024-01-15T02:12:47;5.35;;;1.20;;
23001;SDS011;11667;51.706;4.856;2024-01-15T02:15:17;5.20;;;1.40;;
23001;SDS011;11667;51.706;4.856;2024-01-15T02:18:06;4.17;;;1.17;;
23001;SDS011;11667;51.706;4.856;2024-01-15T02:20:27;6.72;;;1.57;;
23001;SDS011;11667;51.706;4.856;2024-01-15T02:23:12;3.15;;;0.85;;
23001;SDS011;11667;51.706;4.856;2024-01-15T02:28:13;5.67;;;0.50;;
23001;SDS011;11667;51.706;4.856;2024-01-15T02:30:43;1.65;;;1.17;;
23001;SDS011;11667;51.706;4.856;2024-01-15T02:33:13;2.25;;;0.75;;
23001;SDS011;11667;51.706;4.856;2024-01-15T02:35:43;3.10;;;0.42;;
23001;SDS011;11667;51.706;4.856;2024-01-15T02:38:14;1.17;;;0.60;;
23001;SDS011;11667;51.706;4.856;2024-01-15T02:40:43;1.22;;;0.37;;
23001;SDS011;11667;51.706;4.856;2024-01-15T02:43:13;1.50;;;0.33;;
23001;SDS011;11667;51.706;4.856;2024-01-15T02:45:42;0.40;;;0.15;;
23001;SDS011;11667;51.706;4.856;2024-01-15T02:48:12;2.72;;;0.30;;
23001;SDS011;11667;51.706;4.856;2024-01-15T02:50:41;3.37;;;0.53;;
23001;SDS011;11667;51.706;4.856;2024-01-15T02:53:11;6.85;;;1.05;;
23001;SDS011;11667;51.706;4.856;2024-01-15T02:55:40;1.15;;;0.60;;
23001;SDS011;11667;51.706;4.856;2024-01-15T02:58:09;2.15;;;0.72;;
23001;SDS011;11667;51.706;4.856;2024-01-15T03:00:39;4.05;;;0.37;;
23001;SDS011;11667;51.706;4.856;2024-01-15T03:03:08;1.82;;;0.53;;
23001;SDS011;11667;51.706;4.856;2024-01-15T03:05:37;8.78;;;1.20;;
23001;SDS011;11667;51.706;4.856;2024-01-15T03:08:07;5.85;;;0.85;;
23001;SDS011;11667;51.706;4.856;2024-01-15T03:10:36;16.02;;;1.27;;
23001;SDS011;11667;51.706;4.856;2024-01-15T03:13:05;3.33;;;0.53;;
23001;SDS011;11667;51.706;4.856;2024-01-15T03:15:35;0.42;;;0.42;;
23001;SDS011;11667;51.706;4.856;2024-01-15T03:18:04;4.22;;;1.12;;
23001;SDS011;11667;51.706;4.856;2024-01-15T03:20:34;7.00;;;1.52;;
23001;SDS011;11667;51.706;4.856;2024-01-15T03:23:04;5.97;;;1.10;;
23001;SDS011;11667;51.706;4.856;2024-01-15T03:25:33;3.45;;;0.85;;
23001;SDS011;11667;51.706;4.856;2024-01-15T03:28:02;3.17;;;1.10;;
23001;SDS011;11667;51.706;4.856;2024-01-15T03:30:32;2.70;;;0.75;;
23001;SDS011;11667;51.706;4.856;2024-01-15T03:33:01;3.42;;;1.12;;
23001;SDS011;11667;51.706;4.856;2024-01-15T03:35:31;2.33;;;1.00;;
23001;SDS011;11667;51.706;4.856;2024-01-15T03:38:00;7.28;;;1.35;;
23001;SDS011;11667;51.706;4.856;2024-01-15T03:40:29;2.65;;;0.72;;
23001;SDS011;11667;51.706;4.856;2024-01-15T03:42:59;1.98;;;0.40;;
23001;SDS011;11667;51.706;4.856;2024-01-15T03:45:28;1.45;;;0.35;;
23001;SDS011;11667;51.706;4.856;2024-01-15T03:47:57;4.03;;;0.95;;
23001;SDS011;11667;51.706;4.856;2024-01-15T03:50:27;3.40;;;0.70;;
23001;SDS011;11667;51.706;4.856;2024-01-15T03:52:56;0.40;;;0.33;;
23001;SDS011;11667;51.706;4.856;2024-01-15T03:55:25;1.55;;;0.20;;
23001;SDS011;11667;51.706;4.856;2024-01-15T03:57:55;0.10;;;0.10;;
23001;SDS011;11667;51.706;4.856;2024-01-15T04:00:24;0.37;;;0.30;;
23001;SDS011;11667;51.706;4.856;2024-01-15T04:02:53;0.37;;;0.30;;
23001;SDS011;11667;51.706;4.856;2024-01-15T04:05:23;0.28;;;0.28;;
23001;SDS011;11667;51.706;4.856;2024-01-15T04:07:52;0.20;;;0.20;;
23001;SDS011;11667;51.706;4.856;2024-01-15T04:10:21;3.02;;;0.30;;
23001;SDS011;11667;51.706;4.856;2024-01-15T04:12:50;0.88;;;0.10;;
23001;SDS011;11667;51.706;4.856;2024-01-15T04:15:20;0.88;;;0.50;;
23001;SDS011;11667;51.706;4.856;2024-01-15T04:17:49;0.23;;;0.13;;
23001;SDS011;11667;51.706;4.856;2024-01-15T04:20:19;2.55;;;0.65;;
23001;SDS011;11667;51.706;4.856;2024-01-15T04:22:50;1.37;;;0.50;;
23001;SDS011;11667;51.706;4.856;2024-01-15T04:25:23;0.53;;;0.20;;
23001;SDS011;11667;51.706;4.856;2024-01-15T04:27:52;2.55;;;0.50;;
23001;SDS011;11667;51.706;4.856;2024-01-15T04:30:21;3.50;;;0.70;;
23001;SDS011;11667;51.706;4.856;2024-01-15T04:32:51;2.12;;;0.20;;
23001;SDS011;11667;51.706;4.856;2024-01-15T04:35:20;0.10;;;0.10;;
23001;SDS011;11667;51.706;4.856;2024-01-15T04:37:50;4.00;;;0.42;;
23001;SDS011;11667;51.706;4.856;2024-01-15T04:40:19;0.42;;;0.25;;
23001;SDS011;11667;51.706;4.856;2024-01-15T04:42:49;1.05;;;0.53;;
23001;SDS011;11667;51.706;4.856;2024-01-15T04:45:18;1.67;;;0.45;;
23001;SDS011;11667;51.706;4.856;2024-01-15T04:47:49;1.87;;;0.65;;
23001;SDS011;11667;51.706;4.856;2024-01-15T04:50:18;2.37;;;0.35;;
23001;SDS011;11667;51.706;4.856;2024-01-15T04:52:48;1.02;;;0.57;;
23001;SDS011;11667;51.706;4.856;2024-01-15T04:55:18;0.33;;;0.33;;
23001;SDS011;11667;51.706;4.856;2024-01-15T04:57:47;3.27;;;0.68;;
23001;SDS011;11667;51.706;4.856;2024-01-15T05:00:17;0.35;;;0.25;;
23001;SDS011;11667;51.706;4.856;2024-01-15T05:02:47;1.02;;;0.13;;
23001;SDS011;11667;51.706;4.856;2024-01-15T05:05:16;1.07;;;0.20;;
23001;SDS011;11667;51.706;4.856;2024-01-15T05:07:45;0.40;;;0.40;;
23001;SDS011;11667;51.706;4.856;2024-01-15T05:10:15;1.50;;;0.88;;
23001;SDS011;11667;51.706;4.856;2024-01-15T05:12:44;1.75;;;0.53;;
23001;SDS011;11667;51.706;4.856;2024-01-15T05:15:13;0.33;;;0.30;;
23001;SDS011;11667;51.706;4.856;2024-01-15T05:17:43;0.25;;;0.25;;
23001;SDS011;11667;51.706;4.856;2024-01-15T05:20:12;0.82;;;0.35;;
23001;SDS011;11667;51.706;4.856;2024-01-15T05:22:42;1.17;;;0.60;;
23001;SDS011;11667;51.706;4.856;2024-01-15T05:25:12;0.40;;;0.40;;
23001;SDS011;11667;51.706;4.856;2024-01-15T05:27:41;6.65;;;0.68;;
23001;SDS011;11667;51.706;4.856;2024-01-15T05:30:10;1.45;;;0.78;;
23001;SDS011;11667;51.706;4.856;2024-01-15T05:32:40;2.30;;;0.50;;
23001;SDS011;11667;51.706;4.856;2024-01-15T05:35:09;2.00;;;1.00;;
23001;SDS011;11667;51.706;4.856;2024-01-15T05:37:43;1.52;;;0.60;;
23001;SDS011;11667;51.706;4.856;2024-01-15T05:40:12;2.42;;;0.70;;
23001;SDS011;11667;51.706;4.856;2024-01-15T05:42:41;5.75;;;1.32;;
23001;SDS011;11667;51.706;4.856;2024-01-15T05:45:11;1.15;;;0.70;;
23001;SDS011;11667;51.706;4.856;2024-01-15T05:47:40;2.72;;;1.00;;
23001;SDS011;11667;51.706;4.856;2024-01-15T05:50:09;1.50;;;0.75;;
23001;SDS011;11667;51.706;4.856;2024-01-15T05:52:40;0.60;;;0.40;;
23001;SDS011;11667;51.706;4.856;2024-01-15T05:55:09;4.20;;;0.80;;
23001;SDS011;11667;51.706;4.856;2024-01-15T05:57:38;1.52;;;0.75;;
23001;SDS011;11667;51.706;4.856;2024-01-15T06:00:08;0.88;;;0.78;;
23001;SDS011;11667;51.706;4.856;2024-01-15T06:02:38;0.65;;;0.62;;
23001;SDS011;11667;51.706;4.856;2024-01-15T06:05:07;1.92;;;1.00;;
23001;SDS011;11667;51.706;4.856;2024-01-15T06:07:36;1.42;;;0.95;;
23001;SDS011;11667;51.706;4.856;2024-01-15T06:10:06;1.65;;;1.40;;
23001;SDS011;11667;51.706;4.856;2024-01-15T06:12:36;0.95;;;0.85;;
23001;SDS011;11667;51.706;4.856;2024-01-15T06:15:05;0.82;;;0.75;;
23001;SDS011;11667;51.706;4.856;2024-01-15T06:17:35;0.78;;;0.62;;
23001;SDS011;11667;51.706;4.856;2024-01-15T06:20:05;0.53;;;0.53;;
23001;SDS011;11667;51.706;4.856;2024-01-15T06:22:37;2.67;;;1.00;;
23001;SDS011;11667;51.706;4.856;2024-01-15T06:25:07;1.35;;;0.93;;
23001;SDS011;11667;51.706;4.856;2024-01-15T06:27:36;3.02;;;0.72;;
23001;SDS011;11667;51.706;4.856;2024-01-15T06:30:06;1.10;;;0.80;;
23001;SDS011;11667;51.706;4.856;2024-01-15T06:32:36;1.15;;;0.95;;
23001;SDS011;11667;51.706;4.856;2024-01-15T06:35:06;1.10;;;0.85;;
23001;SDS011;11667;51.706;4.856;2024-01-15T06:37:35;2.83;;;1.42;;
23001;SDS011;11667;51.706;4.856;2024-01-15T06:40:05;1.75;;;1.10;;
23001;SDS011;11667;51.706;4.856;2024-01-15T06:42:35;2.87;;;1.55;;
23001;SDS011;11667;51.706;4.856;2024-01-15T06:45:05;1.80;;;1.50;;
23001;SDS011;11667;51.706;4.856;2024-01-15T06:47:35;1.10;;;0.88;;
23001;SDS011;11667;51.706;4.856;2024-01-15T06:50:04;1.92;;;1.17;;
23001;SDS011;11667;51.706;4.856;2024-01-15T06:52:35;2.17;;;1.55;;
23001;SDS011;11667;51.706;4.856;2024-01-15T06:55:04;5.42;;;1.45;;
23001;SDS011;11667;51.706;4.856;2024-01-15T06:57:34;2.02;;;1.60;;
23001;SDS011;11667;51.706;4.856;2024-01-15T07:00:03;2.92;;;1.80;;
23001;SDS011;11667;51.706;4.856;2024-01-15T07:02:35;2.77;;;1.72;;
23001;SDS011;11667;51.706;4.856;2024-01-15T07:05:05;2.60;;;1.45;;
23001;SDS011;11667;51.706;4.856;2024-01-15T07:07:34;1.15;;;1.02;;
23001;SDS011;11667;51.706;4.856;2024-01-15T07:10:04;1.90;;;1.50;;
23001;SDS011;11667;51.706;4.856;2024-01-15T07:12:34;3.27;;;2.02;;
23001;SDS011;11667;51.706;4.856;2024-01-15T07:15:04;2.58;;;1.37;;
23001;SDS011;11667;51.706;4.856;2024-01-15T07:17:35;1.50;;;1.07;;
23001;SDS011;11667;51.706;4.856;2024-01-15T07:20:07;1.47;;;0.90;;
23001;SDS011;11667;51.706;4.856;2024-01-15T07:22:37;9.15;;;1.62;;
23001;SDS011;11667;51.706;4.856;2024-01-15T07:25:06;2.12;;;1.05;;
23001;SDS011;11667;51.706;4.856;2024-01-15T07:27:35;0.55;;;0.55;;
23001;SDS011;11667;51.706;4.856;2024-01-15T07:30:05;3.77;;;1.32;;
23001;SDS011;11667;51.706;4.856;2024-01-15T07:32:35;1.92;;;1.70;;
23001;SDS011;11667;51.706;4.856;2024-01-15T07:35:04;2.85;;;1.10;;
23001;SDS011;11667;51.706;4.856;2024-01-15T07:37:34;1.52;;;1.40;;
23001;SDS011;11667;51.706;4.856;2024-01-15T07:40:03;2.15;;;1.57;;
23001;SDS011;11667;51.706;4.856;2024-01-15T07:42:35;1.98;;;1.52;;
23001;SDS011;11667;51.706;4.856;2024-01-15T07:45:08;2.77;;;1.67;;
23001;SDS011;11667;51.706;4.856;2024-01-15T07:47:38;1.70;;;1.17;;
23001;SDS011;11667;51.706;4.856;2024-01-15T07:50:08;1.50;;;1.37;;
23001;SDS011;11667;51.706;4.856;2024-01-15T07:52:38;2.25;;;1.02;;
23001;SDS011;11667;51.706;4.856;2024-01-15T07:55:10;3.25;;;1.47;;
23001;SDS011;11667;51.706;4.856;2024-01-15T07:57:39;1.20;;;0.98;;
23001;SDS011;11667;51.706;4.856;2024-01-15T08:00:09;2.33;;;1.60;;
23001;SDS011;11667;51.706;4.856;2024-01-15T08:02:38;1.42;;;0.50;;
23001;SDS011;11667;51.706;4.856;2024-01-15T08:05:08;1.32;;;0.55;;
23001;SDS011;11667;51.706;4.856;2024-01-15T08:07:37;3.00;;;0.72;;
23001;SDS011;11667;51.706;4.856;2024-01-15T08:10:07;1.42;;;0.72;;
23001;SDS011;11667;51.706;4.856;2024-01-15T08:12:36;0.72;;;0.72;;
23001;SDS011;11667;51.706;4.856;2024-01-15T08:15:06;0.82;;;0.80;;
23001;SDS011;11667;51.706;4.856;2024-01-15T08:17:36;1.67;;;0.60;;
23001;SDS011;11667;51.706;4.856;2024-01-15T08:20:05;1.40;;;1.00;;
23001;SDS011;11667;51.706;4.856;2024-01-15T08:22:36;3.45;;;1.35;;
23001;SDS011;11667;51.706;4.856;2024-01-15T08:25:05;1.15;;;0.47;;
23001;SDS011;11667;51.706;4.856;2024-01-15T08:27:34;3.42;;;0.65;;
23001;SDS011;11667;51.706;4.856;2024-01-15T08:30:04;1.25;;;1.12;;
23001;SDS011;11667;51.706;4.856;2024-01-15T08:32:34;1.45;;;0.55;;
23001;SDS011;11667;51.706;4.856;2024-01-15T08:35:05;4.15;;;0.88;;
23001;SDS011;11667;51.706;4.856;2024-01-15T08:37:35;6.40;;;0.72;;
23001;SDS011;11667;51.706;4.856;2024-01-15T08:40:04;7.78;;;1.10;;
23001;SDS011;11667;51.706;4.856;2024-01-15T08:42:34;1.55;;;0.75;;
23001;SDS011;11667;51.706;4.856;2024-01-15T08:45:03;2.45;;;0.78;;
23001;SDS011;11667;51.706;4.856;2024-01-15T08:47:33;0.45;;;0.20;;
23001;SDS011;11667;51.706;4.856;2024-01-15T08:50:03;8.15;;;1.82;;
23001;SDS011;11667;51.706;4.856;2024-01-15T08:52:32;4.78;;;1.07;;
23001;SDS011;11667;51.706;4.856;2024-01-15T08:55:02;5.37;;;0.93;;
23001;SDS011;11667;51.706;4.856;2024-01-15T08:57:32;4.05;;;1.25;;
23001;SDS011;11667;51.706;4.856;2024-01-15T09:00:02;10.45;;;1.35;;
23001;SDS011;11667;51.706;4.856;2024-01-15T09:02:31;2.95;;;1.30;;
23001;SDS011;11667;51.706;4.856;2024-01-15T09:05:00;3.80;;;0.55;;
23001;SDS011;11667;51.706;4.856;2024-01-15T09:07:32;2.40;;;0.80;;
23001;SDS011;11667;51.706;4.856;2024-01-15T09:10:01;5.22;;;1.07;;
23001;SDS011;11667;51.706;4.856;2024-01-15T09:12:32;1.10;;;0.85;;
23001;SDS011;11667;51.706;4.856;2024-01-15T09:15:02;4.20;;;1.30;;
23001;SDS011;11667;51.706;4.856;2024-01-15T09:17:32;3.95;;;0.98;;
23001;SDS011;11667;51.706;4.856;2024-01-15T09:20:01;4.17;;;1.02;;
23001;SDS011;11667;51.706;4.856;2024-01-15T09:22:32;4.50;;;1.37;;
23001;SDS011;11667;51.706;4.856;2024-01-15T09:25:02;1.67;;;0.82;;
23001;SDS011;11667;51.706;4.856;2024-01-15T09:27:32;2.15;;;0.70;;
23001;SDS011;11667;51.706;4.856;2024-01-15T09:30:02;4.55;;;1.50;;
23001;SDS011;11667;51.706;4.856;2024-01-15T09:32:32;15.45;;;1.77;;
23001;SDS011;11667;51.706;4.856;2024-01-15T09:35:02;2.67;;;0.65;;
23001;SDS011;11667;51.706;4.856;2024-01-15T09:37:31;5.12;;;0.93;;
23001;SDS011;11667;51.706;4.856;2024-01-15T09:40:02;4.28;;;1.10;;
23001;SDS011;11667;51.706;4.856;2024-01-15T09:42:34;1.77;;;0.95;;
23001;SDS011;11667;51.706;4.856;2024-01-15T09:45:04;1.55;;;0.93;;
23001;SDS011;11667;51.706;4.856;2024-01-15T09:47:33;6.33;;;1.45;;
23001;SDS011;11667;51.706;4.856;2024-01-15T09:50:05;2.45;;;1.30;;
23001;SDS011;11667;51.706;4.856;2024-01-15T09:52:34;3.20;;;1.30;;
23001;SDS011;11667;51.706;4.856;2024-01-15T09:55:04;1.60;;;0.42;;
23001;SDS011;11667;51.706;4.856;2024-01-15T09:57:34;0.68;;;0.47;;
23001;SDS011;11667;51.706;4.856;2024-01-15T10:00:05;2.90;;;1.12;;
23001;SDS011;11667;51.706;4.856;2024-01-15T10:02:37;5.58;;;2.00;;
23001;SDS011;11667;51.706;4.856;2024-01-15T10:05:08;10.63;;;0.72;;
23001;SDS011;11667;51.706;4.856;2024-01-15T10:07:37;3.10;;;1.70;;
23001;SDS011;11667;51.706;4.856;2024-01-15T10:10:07;5.60;;;0.70;;
23001;SDS011;11667;51.706;4.856;2024-01-15T10:12:37;1.30;;;0.85;;
23001;SDS011;11667;51.706;4.856;2024-01-15T10:15:11;5.33;;;1.17;;
23001;SDS011;11667;51.706;4.856;2024-01-15T10:17:41;1.00;;;0.55;;
23001;SDS011;11667;51.706;4.856;2024-01-15T10:20:11;15.58;;;1.82;;
23001;SDS011;11667;51.706;4.856;2024-01-15T10:22:41;1.98;;;0.80;;
23001;SDS011;11667;51.706;4.856;2024-01-15T10:25:12;10.40;;;1.70;;
23001;SDS011;11667;51.706;4.856;2024-01-15T10:27:42;4.85;;;1.10;;
23001;SDS011;11667;51.706;4.856;2024-01-15T10:30:12;4.25;;;1.15;;
23001;SDS011;11667;51.706;4.856;2024-01-15T10:32:42;2.52;;;1.22;;
23001;SDS011;11667;51.706;4.856;2024-01-15T10:35:15;3.85;;;1.17;;
23001;SDS011;11667;51.706;4.856;2024-01-15T10:37:44;3.33;;;1.32;;
23001;SDS011;11667;51.706;4.856;2024-01-15T10:40:13;0.70;;;0.65;;
23001;SDS011;11667;51.706;4.856;2024-01-15T10:42:42;2.67;;;0.53;;
23001;SDS011;11667;51.706;4.856;2024-01-15T10:45:12;3.02;;;1.00;;
23001;SDS011;11667;51.706;4.856;2024-01-15T10:47:43;5.20;;;0.72;;
23001;SDS011;11667;51.706;4.856;2024-01-15T10:50:13;2.25;;;0.88;;
23001;SDS011;11667;51.706;4.856;2024-01-15T10:52:42;5.25;;;1.25;;
23001;SDS011;11667;51.706;4.856;2024-01-15T10:55:13;2.47;;;0.78;;
23001;SDS011;11667;51.706;4.856;2024-01-15T10:57:44;0.72;;;0.28;;
23001;SDS011;11667;51.706;4.856;2024-01-15T11:00:14;0.75;;;0.72;;
23001;SDS011;11667;51.706;4.856;2024-01-15T11:02:44;3.52;;;0.53;;
23001;SDS011;11667;51.706;4.856;2024-01-15T11:05:13;0.47;;;0.47;;
23001;SDS011;11667;51.706;4.856;2024-01-15T11:07:44;1.87;;;0.82;;
23001;SDS011;11667;51.706;4.856;2024-01-15T11:13:19;1.42;;;0.80;;
23001;SDS011;11667;51.706;4.856;2024-01-15T11:16:04;0.47;;;0.45;;
23001;SDS011;11667;51.706;4.856;2024-01-15T11:18:39;4.12;;;1.00;;
23001;SDS011;11667;51.706;4.856;2024-01-15T11:23:46;3.40;;;1.50;;
23001;SDS011;11667;51.706;4.856;2024-01-15T11:29:05;2.65;;;0.90;;
23001;SDS011;11667;51.706;4.856;2024-01-15T11:34:11;2.02;;;1.05;;
23001;SDS011;11667;51.706;4.856;2024-01-15T11:42:01;0.75;;;0.60;;
23001;SDS011;11667;51.706;4.856;2024-01-15T11:44:31;2.65;;;0.82;;
23001;SDS011;11667;51.706;4.856;2024-01-15T11:47:02;0.80;;;0.75;;
23001;SDS011;11667;51.706;4.856;2024-01-15T11:52:23;2.20;;;0.93;;
23001;SDS011;11667;51.706;4.856;2024-01-15T12:00:17;3.30;;;1.07;;
23001;SDS011;11667;51.706;4.856;2024-01-15T12:02:48;1.42;;;0.68;;
23001;SDS011;11667;51.706;4.856;2024-01-15T12:05:18;0.82;;;0.62;;
23001;SDS011;11667;51.706;4.856;2024-01-15T12:07:49;1.77;;;0.80;;
23001;SDS011;11667;51.706;4.856;2024-01-15T12:10:19;2.42;;;1.22;;
23001;SDS011;11667;51.706;4.856;2024-01-15T12:13:05;1.75;;;1.00;;
23001;SDS011;11667;51.706;4.856;2024-01-15T12:15:36;1.87;;;1.27;;
23001;SDS011;11667;51.706;4.856;2024-01-15T12:18:19;4.50;;;1.12;;
23001;SDS011;11667;51.706;4.856;2024-01-15T12:20:49;2.60;;;1.15;;
23001;SDS011;11667;51.706;4.856;2024-01-15T12:23:19;1.72;;;1.05;;
23001;SDS011;11667;51.706;4.856;2024-01-15T12:25:48;0.03;;;0.03;;
23001;SDS011;11667;51.706;4.856;2024-01-15T12:28:18;0.00;;;0.00;;
23001;SDS011;11667;51.706;4.856;2024-01-15T12:30:47;0.10;;;0.10;;
23001;SDS011;11667;51.706;4.856;2024-01-15T12:33:18;0.05;;;0.05;;
23001;SDS011;11667;51.706;4.856;2024-01-15T12:35:48;0.03;;;0.03;;
23001;SDS011;11667;51.706;4.856;2024-01-15T12:38:19;0.00;;;0.00;;
23001;SDS011;11667;51.706;4.856;2024-01-15T12:40:49;0.00;;;0.00;;
23001;SDS011;11667;51.706;4.856;2024-01-15T12:43:18;0.00;;;0.00;;
23001;SDS011;11667;51.706;4.856;2024-01-15T12:45:47;0.10;;;0.10;;
23001;SDS011;11667;51.706;4.856;2024-01-15T12:48:17;0.10;;;0.10;;
23001;SDS011;11667;51.706;4.856;2024-01-15T12:50:46;0.05;;;0.05;;
23001;SDS011;11667;51.706;4.856;2024-01-15T12:53:16;0.10;;;0.10;;
23001;SDS011;11667;51.706;4.856;2024-01-15T12:55:45;0.05;;;0.05;;
23001;SDS011;11667;51.706;4.856;2024-01-15T12:58:15;0.10;;;0.10;;
23001;SDS011;11667;51.706;4.856;2024-01-15T13:00:45;0.00;;;0.00;;
23001;SDS011;11667;51.706;4.856;2024-01-15T13:03:15;0.10;;;0.10;;
23001;SDS011;11667;51.706;4.856;2024-01-15T13:05:45;0.10;;;0.10;;
23001;SDS011;11667;51.706;4.856;2024-01-15T13:08:14;0.10;;;0.10;;
23001;SDS011;11667;51.706;4.856;2024-01-15T13:10:44;0.10;;;0.10;;
23001;SDS011;11667;51.706;4.856;2024-01-15T13:13:13;0.03;;;0.03;;
23001;SDS011;11667;51.706;4.856;2024-01-15T13:15:42;0.53;;;0.53;;
23001;SDS011;11667;51.706;4.856;2024-01-15T13:18:12;0.10;;;0.10;;
23001;SDS011;11667;51.706;4.856;2024-01-15T13:20:41;0.00;;;0.00;;
23001;SDS011;11667;51.706;4.856;2024-01-15T13:23:10;0.10;;;0.10;;
23001;SDS011;11667;51.706;4.856;2024-01-15T13:25:40;0.00;;;0.00;;
23001;SDS011;11667;51.706;4.856;2024-01-15T13:28:09;0.00;;;0.00;;
23001;SDS011;11667;51.706;4.856;2024-01-15T13:30:39;0.10;;;0.10;;
23001;SDS011;11667;51.706;4.856;2024-01-15T13:33:08;0.10;;;0.10;;
23001;SDS011;11667;51.706;4.856;2024-01-15T13:35:37;0.00;;;0.00;;
23001;SDS011;11667;51.706;4.856;2024-01-15T13:38:07;0.20;;;0.20;;
23001;SDS011;11667;51.706;4.856;2024-01-15T13:40:36;0.08;;;0.08;;
23001;SDS011;11667;51.706;4.856;2024-01-15T13:43:05;0.10;;;0.10;;
23001;SDS011;11667;51.706;4.856;2024-01-15T13:45:36;0.10;;;0.10;;
23001;SDS011;11667;51.706;4.856;2024-01-15T13:48:05;0.03;;;0.03;;
23001;SDS011;11667;51.706;4.856;2024-01-15T13:50:36;0.03;;;0.03;;
23001;SDS011;11667;51.706;4.856;2024-01-15T13:53:05;0.10;;;0.10;;
23001;SDS011;11667;51.706;4.856;2024-01-15T13:55:36;0.00;;;0.00;;
23001;SDS011;11667;51.706;4.856;2024-01-15T13:58:05;0.00;;;0.00;;
23001;SDS011;11667;51.706;4.856;2024-01-15T14:00:35;0.00;;;0.00;;
23001;SDS011;11667;51.706;4.856;2024-01-15T14:03:04;0.10;;;0.10;;
23001;SDS011;11667;51.706;4.856;2024-01-15T14:05:34;0.00;;;0.00;;
23001;SDS011;11667;51.706;4.856;2024-01-15T14:08:03;0.08;;;0.08;;
23001;SDS011;11667;51.706;4.856;2024-01-15T14:10:33;0.15;;;0.15;;
23001;SDS011;11667;51.706;4.856;2024-01-15T14:13:02;0.00;;;0.00;;
23001;SDS011;11667;51.706;4.856;2024-01-15T14:15:32;0.10;;;0.10;;
23001;SDS011;11667;51.706;4.856;2024-01-15T14:18:01;0.10;;;0.10;;
23001;SDS011;11667;51.706;4.856;2024-01-15T14:20:31;0.00;;;0.00;;
23001;SDS011;11667;51.706;4.856;2024-01-15T14:23:00;0.00;;;0.00;;
23001;SDS011;11667;51.706;4.856;2024-01-15T14:25:29;0.10;;;0.10;;
23001;SDS011;11667;51.706;4.856;2024-01-15T14:27:58;0.00;;;0.00;;
23001;SDS011;11667;51.706;4.856;2024-01-15T14:30:28;0.10;;;0.10;;
23001;SDS011;11667;51.706;4.856;2024-01-15T14:32:57;0.00;;;0.00;;
23001;SDS011;11667;51.706;4.856;2024-01-15T14:35:26;0.00;;;0.00;;
23001;SDS011;11667;51.706;4.856;2024-01-15T14:37:56;0.10;;;0.10;;
23001;SDS011;11667;51.706;4.856;2024-01-15T14:40:27;0.05;;;0.05;;
23001;SDS011;11667;51.706;4.856;2024-01-15T14:42:57;0.00;;;0.00;;
23001;SDS011;11667;51.706;4.856;2024-01-15T14:45:26;0.10;;;0.10;;
23001;SDS011;11667;51.706;4.856;2024-01-15T14:47:56;0.08;;;0.08;;
23001;SDS011;11667;51.706;4.856;2024-01-15T14:50:26;0.03;;;0.03;;
23001;SDS011;11667;51.706;4.856;2024-01-15T14:52:55;0.03;;;0.03;;
23001;SDS011;11667;51.706;4.856;2024-01-15T14:55:24;0.08;;;0.08;;
23001;SDS011;11667;51.706;4.856;2024-01-15T14:57:54;0.08;;;0.08;;
23001;SDS011;11667;51.706;4.856;2024-01-15T15:00:23;0.03;;;0.03;;
23001;SDS011;11667;51.706;4.856;2024-01-15T15:02:52;0.00;;;0.00;;
23001;SDS011;11667;51.706;4.856;2024-01-15T15:05:22;0.00;;;0.00;;
23001;SDS011;11667;51.706;4.856;2024-01-15T15:07:51;0.00;;;0.00;;
23001;SDS011;11667;51.706;4.856;2024-01-15T15:10:20;0.10;;;0.10;;
23001;SDS011;11667;51.706;4.856;2024-01-15T15:12:50;0.05;;;0.05;;
23001;SDS011;11667;51.706;4.856;2024-01-15T15:15:19;0.00;;;0.00;;
23001;SDS011;11667;51.706;4.856;2024-01-15T15:17:50;0.00;;;0.00;;
23001;SDS011;11667;51.706;4.856;2024-01-15T15:20:19;0.00;;;0.00;;
23001;SDS011;11667;51.706;4.856;2024-01-15T15:22:49;0.20;;;0.20;;
23001;SDS011;11667;51.706;4.856;2024-01-15T15:25:20;0.08;;;0.08;;
23001;SDS011;11667;51.706;4.856;2024-01-15T15:27:49;0.00;;;0.00;;
23001;SDS011;11667;51.706;4.856;2024-01-15T15:30:19;0.00;;;0.00;;